createdAt,value
2023-04-17T00:00:02.953Z,0.00
2023-04-17T00:01:02.872Z,0.00
2023-04-17T00:02:02.810Z,0.00
2023-04-17T00:03:02.900Z,0.00
2023-04-17T00:04:02.796Z,0.00
2023-04-17T00:05:02.647Z,0.00
2023-04-17T00:06:02.537Z,0.00
2023-04-17T00:07:02.486Z,0.00
2023-04-17T00:08:02.469Z,0.00
2023-04-17T00:09:02.324Z,1.00
2023-04-17T00:10:02.335Z,0.00
2023-04-17T00:11:07.575Z,0.00
2023-04-17T00:12:02.167Z,0.00
2023-04-17T00:13:02.125Z,0.00
2023-04-17T00:14:02.099Z,0.00
2023-04-17T00:15:01.997Z,0.00
2023-04-17T00:16:02.020Z,0.00
2023-04-17T00:17:01.966Z,0.00
2023-04-17T00:18:01.922Z,0.00
2023-04-17T00:19:19.081Z,0.00
2023-04-17T00:20:01.677Z,0.00
2023-04-17T00:21:01.637Z,0.00
2023-04-17T00:22:01.549Z,0.00
2023-04-17T00:23:01.454Z,0.00
2023-04-17T00:24:01.438Z,0.00
2023-04-17T00:25:36.090Z,0.00
2023-04-17T00:26:01.310Z,0.00
2023-04-17T00:27:01.236Z,0.00
2023-04-17T00:28:01.174Z,0.00
2023-04-17T00:29:01.100Z,0.00
2023-04-17T00:30:01.039Z,0.00
2023-04-17T00:31:00.973Z,0.00
2023-04-17T00:32:00.931Z,0.00
2023-04-17T00:33:00.856Z,0.00
2023-04-17T00:34:00.781Z,0.00
2023-04-17T00:35:00.730Z,0.00
2023-04-17T00:36:00.630Z,0.00
2023-04-17T00:38:10.164Z,0.00
2023-04-17T00:39:11.025Z,0.00
2023-04-17T00:40:10.686Z,0.00
2023-04-17T00:41:10.593Z,0.00
2023-04-17T00:42:10.558Z,0.00
2023-04-17T00:43:10.498Z,0.00
2023-04-17T00:44:10.653Z,0.00
2023-04-17T00:45:10.341Z,0.00
2023-04-17T00:46:10.348Z,0.00
2023-04-17T00:47:10.223Z,0.00
2023-04-17T00:48:10.207Z,0.00
2023-04-17T00:49:10.413Z,0.00
2023-04-17T00:50:10.033Z,0.00
2023-04-17T00:51:10.017Z,0.00
2023-04-17T00:52:09.959Z,0.00
2023-04-17T00:53:09.873Z,0.00
2023-04-17T00:54:09.797Z,0.00
2023-04-17T00:55:09.749Z,0.00
2023-04-17T00:57:49.059Z,0.00
2023-04-17T00:58:50.035Z,0.00
2023-04-17T00:59:49.928Z,0.00
2023-04-17T01:00:49.928Z,0.00
2023-04-17T01:01:49.824Z,0.00
2023-04-17T01:02:49.873Z,0.00
2023-04-17T01:03:49.935Z,0.00
2023-04-17T01:04:49.584Z,0.00
2023-04-17T01:05:49.548Z,0.00
2023-04-17T01:06:49.492Z,0.00
2023-04-17T01:07:49.397Z,0.00
2023-04-17T01:08:49.408Z,0.00
2023-04-17T01:09:49.325Z,0.00
2023-04-17T01:10:49.214Z,0.00
2023-04-17T01:11:49.139Z,0.00
2023-04-17T01:12:49.103Z,0.00
2023-04-17T01:13:49.056Z,0.00
2023-04-17T01:14:48.961Z,0.00
2023-04-17T01:15:48.924Z,0.00
2023-04-17T01:16:48.920Z,0.00
2023-04-17T01:17:48.810Z,0.00
2023-04-17T01:18:48.749Z,0.00
2023-04-17T01:19:48.693Z,0.00
2023-04-17T01:21:23.353Z,0.00
2023-04-17T01:21:48.536Z,0.00
2023-04-17T01:22:48.444Z,0.00
2023-04-17T01:23:48.421Z,0.00
2023-04-17T01:24:48.374Z,0.00
2023-04-17T01:25:48.285Z,0.00
2023-04-17T01:26:48.249Z,0.00
2023-04-17T01:27:48.154Z,0.00
2023-04-17T01:28:48.100Z,0.00
2023-04-17T01:29:48.073Z,0.00
2023-04-17T01:30:47.983Z,0.00
2023-04-17T01:31:47.905Z,0.00
2023-04-17T01:32:47.962Z,0.00
2023-04-17T01:33:47.767Z,0.00
2023-04-17T01:34:47.712Z,0.00
2023-04-17T01:35:47.677Z,0.00
2023-04-17T01:36:47.590Z,0.00
2023-04-17T01:37:47.524Z,0.00
2023-04-17T01:39:22.298Z,0.00
2023-04-17T01:39:47.406Z,0.00
2023-04-17T01:40:47.334Z,0.00
2023-04-17T01:41:47.271Z,0.00
2023-04-17T01:42:47.180Z,0.00
2023-04-17T01:43:47.148Z,0.00
2023-04-17T01:44:47.107Z,0.00
2023-04-17T01:45:47.066Z,0.00
2023-04-17T01:46:46.957Z,0.00
2023-04-17T01:47:46.940Z,0.00
2023-04-17T01:48:46.854Z,0.00
2023-04-17T01:49:46.777Z,0.00
2023-04-17T01:50:46.687Z,0.00
2023-04-17T01:51:46.675Z,0.00
2023-04-17T01:52:46.566Z,0.00
2023-04-17T01:53:46.493Z,0.00
2023-04-17T01:54:46.476Z,0.00
2023-04-17T01:55:46.384Z,0.00
2023-04-17T01:56:46.366Z,0.00
2023-04-17T01:57:46.261Z,0.00
2023-04-17T01:58:46.196Z,0.00
2023-04-17T01:59:46.105Z,0.00
2023-04-17T02:00:46.104Z,0.00
2023-04-17T02:01:46.094Z,0.00
2023-04-17T02:02:46.121Z,0.00
2023-04-17T02:03:46.081Z,0.00
2023-04-17T02:04:45.976Z,0.00
2023-04-17T02:05:45.723Z,0.00
2023-04-17T02:06:45.659Z,0.00
2023-04-17T02:07:45.653Z,0.00
2023-04-17T02:08:45.600Z,0.00
2023-04-17T02:09:45.496Z,0.00
2023-04-17T02:10:45.409Z,0.00
2023-04-17T02:11:45.409Z,0.00
2023-04-17T02:12:45.298Z,0.00
2023-04-17T02:13:45.247Z,0.00
2023-04-17T02:14:45.187Z,0.00
2023-04-17T02:15:45.141Z,0.00
2023-04-17T02:16:45.055Z,0.00
2023-04-17T02:17:45.053Z,0.00
2023-04-17T02:18:44.925Z,0.00
2023-04-17T02:19:44.860Z,0.00
2023-04-17T02:20:44.844Z,0.00
2023-04-17T02:21:44.760Z,0.00
2023-04-17T02:22:44.709Z,0.00
2023-04-17T02:23:44.647Z,0.00
2023-04-17T02:24:44.545Z,0.00
2023-04-17T02:25:44.511Z,0.00
2023-04-17T02:26:44.457Z,0.00
2023-04-17T02:27:44.404Z,0.00
2023-04-17T02:28:44.303Z,0.00
2023-04-17T02:29:44.230Z,0.00
2023-04-17T02:30:44.174Z,0.00
2023-04-17T02:31:44.170Z,0.00
2023-04-17T02:33:18.676Z,0.00
2023-04-17T02:33:43.979Z,0.00
2023-04-17T02:34:43.918Z,0.00
2023-04-17T02:35:43.862Z,0.00
2023-04-17T02:36:43.826Z,0.00
2023-04-17T02:37:43.701Z,0.00
2023-04-17T02:38:43.673Z,0.00
2023-04-17T02:39:43.649Z,0.00
2023-04-17T02:40:43.572Z,0.00
2023-04-17T02:41:43.501Z,0.00
2023-04-17T02:42:43.392Z,0.00
2023-04-17T02:43:43.374Z,0.00
2023-04-17T02:44:43.288Z,0.00
2023-04-17T02:45:43.228Z,0.00
2023-04-17T02:46:43.246Z,0.00
2023-04-17T02:47:43.210Z,0.00
2023-04-17T02:48:43.051Z,0.00
2023-04-17T02:49:42.954Z,0.00
2023-04-17T02:51:00.308Z,0.00
2023-04-17T02:51:42.878Z,0.00
2023-04-17T02:52:42.784Z,0.00
2023-04-17T02:53:42.697Z,0.00
2023-04-17T02:54:42.655Z,0.00
2023-04-17T02:55:42.615Z,0.00
2023-04-17T02:56:42.540Z,0.00
2023-04-17T02:57:42.494Z,0.00
2023-04-17T02:58:42.403Z,0.00
2023-04-17T02:59:42.314Z,0.00
2023-04-17T03:00:42.302Z,0.00
2023-04-17T03:01:42.226Z,0.00
2023-04-17T03:02:42.312Z,0.00
2023-04-17T03:03:42.517Z,0.00
2023-04-17T03:04:42.051Z,0.00
2023-04-17T03:05:41.991Z,0.00
2023-04-17T03:06:41.893Z,0.00
2023-04-17T03:07:41.811Z,0.00
2023-04-17T03:08:41.765Z,0.00
2023-04-17T03:09:41.708Z,0.00
2023-04-17T03:10:41.623Z,0.00
2023-04-17T03:11:41.586Z,0.00
2023-04-17T03:12:41.486Z,0.00
2023-04-17T03:13:41.456Z,0.00
2023-04-17T03:14:41.410Z,0.00
2023-04-17T03:15:41.325Z,0.00
2023-04-17T03:16:41.320Z,0.00
2023-04-17T03:17:41.290Z,0.00
2023-04-17T03:18:41.170Z,0.00
2023-04-17T03:19:41.099Z,0.00
2023-04-17T03:20:41.063Z,0.00
2023-04-17T03:21:40.925Z,0.00
2023-04-17T03:22:40.887Z,0.00
2023-04-17T03:23:40.824Z,0.00
2023-04-17T03:24:40.765Z,0.00
2023-04-17T03:25:40.675Z,0.00
2023-04-17T03:26:57.939Z,0.00
2023-04-17T03:27:40.584Z,0.00
2023-04-17T03:28:40.480Z,0.00
2023-04-17T03:29:40.445Z,0.00
2023-04-17T03:30:40.381Z,0.00
2023-04-17T03:31:40.384Z,0.00
2023-04-17T03:32:40.330Z,0.00
2023-04-17T03:33:40.221Z,0.00
2023-04-17T03:34:40.135Z,0.00
2023-04-17T03:35:40.042Z,0.00
2023-04-17T03:36:39.970Z,0.00
2023-04-17T03:37:39.936Z,0.00
2023-04-17T03:38:39.918Z,0.00
2023-04-17T03:39:39.816Z,0.00
2023-04-17T03:40:39.752Z,0.00
2023-04-17T03:41:39.668Z,0.00
2023-04-17T03:42:39.637Z,0.00
2023-04-17T03:43:39.541Z,0.00
2023-04-17T03:45:14.327Z,0.00
2023-04-17T03:45:39.473Z,0.00
2023-04-17T03:46:39.341Z,0.00
2023-04-17T03:47:39.352Z,0.00
2023-04-17T03:48:39.214Z,0.00
2023-04-17T03:49:39.182Z,0.00
2023-04-17T03:50:39.134Z,0.00
2023-04-17T03:51:39.063Z,0.00
2023-04-17T03:52:38.968Z,0.00
2023-04-17T03:53:38.910Z,0.00
2023-04-17T03:54:38.864Z,0.00
2023-04-17T03:55:38.792Z,0.00
2023-04-17T03:56:39.018Z,0.00
2023-04-17T03:57:38.689Z,0.00
2023-04-17T03:58:38.634Z,0.00
2023-04-17T03:59:38.547Z,0.00
2023-04-17T04:00:38.535Z,0.00
2023-04-17T04:01:38.366Z,1.00
2023-04-17T04:02:38.511Z,0.00
2023-04-17T04:03:38.471Z,1.00
2023-04-17T04:04:38.285Z,1.00
2023-04-17T04:05:38.121Z,1.00
2023-04-17T04:06:38.084Z,2.00
2023-04-17T04:07:37.997Z,2.00
2023-04-17T04:08:37.935Z,2.00
2023-04-17T04:09:37.852Z,3.00
2023-04-17T04:10:37.816Z,3.00
2023-04-17T04:11:37.763Z,2.00
2023-04-17T04:12:37.673Z,2.00
2023-04-17T04:13:37.617Z,4.00
2023-04-17T04:14:38.649Z,5.00
2023-04-17T04:15:37.528Z,7.00
2023-04-17T04:16:37.463Z,6.00
2023-04-17T04:17:37.392Z,4.00
2023-04-17T04:18:37.258Z,8.00
2023-04-17T04:19:37.215Z,10.00
2023-04-17T04:20:54.501Z,11.00
2023-04-17T04:21:37.070Z,11.00
2023-04-17T04:22:37.041Z,14.00
2023-04-17T04:23:36.999Z,13.00
2023-04-17T04:24:36.901Z,19.00
2023-04-17T04:25:36.867Z,23.00
2023-04-17T04:26:36.758Z,22.00
2023-04-17T04:27:36.697Z,25.00
2023-04-17T04:28:36.646Z,22.00
2023-04-17T04:29:36.580Z,29.00
2023-04-17T04:30:36.524Z,31.00
2023-04-17T04:31:36.490Z,34.00
2023-04-17T04:33:00.505Z,37.00
2023-04-17T04:33:36.328Z,32.00
2023-04-17T04:34:36.271Z,44.00
2023-04-17T04:35:37.258Z,50.00
2023-04-17T04:36:36.239Z,58.00
2023-04-17T04:37:36.102Z,59.00
2023-04-17T04:38:53.423Z,61.00
2023-04-17T04:39:35.947Z,67.00
2023-04-17T04:40:35.909Z,66.00
2023-04-17T04:41:35.848Z,72.00
2023-04-17T04:42:35.732Z,72.00
2023-04-17T04:43:35.681Z,77.00
2023-04-17T04:44:35.645Z,84.00
2023-04-17T04:45:35.600Z,92.00
2023-04-17T04:46:35.539Z,100.00
2023-04-17T04:47:35.452Z,105.00
2023-04-17T04:48:35.351Z,112.00
2023-04-17T04:49:35.311Z,112.00
2023-04-17T04:50:35.297Z,124.00
2023-04-17T04:51:35.184Z,126.00
2023-04-17T04:52:35.150Z,136.00
2023-04-17T04:53:35.062Z,143.00
2023-04-17T04:54:35.020Z,145.00
2023-04-17T04:55:34.953Z,150.00
2023-04-17T04:56:52.252Z,169.00
2023-04-17T04:57:34.805Z,162.00
2023-04-17T04:58:34.719Z,160.00
2023-04-17T04:59:34.837Z,150.00
2023-04-17T05:00:34.610Z,181.00
2023-04-17T05:01:34.599Z,226.00
2023-04-17T05:02:34.672Z,235.00
2023-04-17T05:03:34.575Z,197.00
2023-04-17T05:04:34.473Z,203.00
2023-04-17T05:05:34.301Z,206.00
2023-04-17T05:06:34.243Z,196.00
2023-04-17T05:07:34.185Z,145.00
2023-04-17T05:08:34.101Z,357.00
2023-04-17T05:09:34.043Z,423.00
2023-04-17T05:10:33.967Z,328.00
2023-04-17T05:11:33.918Z,260.00
2023-04-17T05:12:33.834Z,334.00
2023-04-17T05:13:33.769Z,378.00
2023-04-17T05:14:33.769Z,307.00
2023-04-17T05:15:33.665Z,268.00
2023-04-17T05:16:33.621Z,395.00
2023-04-17T05:17:33.579Z,433.00
2023-04-17T05:18:33.485Z,410.00
2023-04-17T05:19:33.410Z,477.00
2023-04-17T05:20:33.334Z,460.00
2023-04-17T05:21:33.257Z,477.00
2023-04-17T05:22:33.250Z,470.00
2023-04-17T05:23:33.134Z,510.00
2023-04-17T05:24:33.094Z,533.00
2023-04-17T05:25:33.033Z,572.00
2023-04-17T05:26:32.981Z,496.00
2023-04-17T05:27:32.907Z,457.00
2023-04-17T05:28:32.839Z,517.00
2023-04-17T05:29:32.753Z,561.00
2023-04-17T05:30:32.691Z,546.00
2023-04-17T05:31:32.697Z,652.00
2023-04-17T05:32:49.985Z,676.00
2023-04-17T05:33:32.529Z,676.00
2023-04-17T05:34:32.468Z,710.00
2023-04-17T05:35:32.397Z,628.00
2023-04-17T05:36:32.365Z,981.00
2023-04-17T05:37:32.280Z,1165.00
2023-04-17T05:38:32.240Z,1333.00
2023-04-17T05:39:32.121Z,1336.00
2023-04-17T05:40:32.084Z,1289.00
2023-04-17T05:41:32.055Z,1106.00
2023-04-17T05:42:31.925Z,1024.00
2023-04-17T05:43:31.899Z,913.00
2023-04-17T05:44:31.805Z,984.00
2023-04-17T05:45:31.783Z,785.00
2023-04-17T05:46:31.668Z,1021.00
2023-04-17T05:47:31.680Z,976.00
2023-04-17T05:48:31.615Z,982.00
2023-04-17T05:49:31.545Z,911.00
2023-04-17T05:50:31.505Z,942.00
2023-04-17T05:51:31.411Z,959.00
2023-04-17T05:52:31.297Z,897.00
2023-04-17T05:53:31.263Z,743.00
2023-04-17T05:54:31.189Z,706.00
2023-04-17T05:55:31.141Z,757.00
2023-04-17T05:56:31.065Z,692.00
2023-04-17T05:57:31.013Z,619.00
2023-04-17T05:58:30.945Z,545.00
2023-04-17T05:59:30.907Z,523.00
2023-04-17T06:00:30.820Z,576.00
2023-04-17T06:01:30.722Z,626.00
2023-04-17T06:03:05.572Z,648.00
2023-04-17T06:03:30.804Z,635.00
2023-04-17T06:04:30.929Z,586.00
2023-04-17T06:05:30.680Z,717.00
2023-04-17T06:06:30.445Z,848.00
2023-04-17T06:07:30.340Z,747.00
2023-04-17T06:09:05.083Z,610.00
2023-04-17T06:09:30.217Z,684.00
2023-04-17T06:10:30.158Z,867.00
2023-04-17T06:11:30.090Z,1046.00
2023-04-17T06:12:30.064Z,1024.00
2023-04-17T06:13:31.436Z,1205.00
2023-04-17T06:14:29.969Z,1053.00
2023-04-17T06:15:29.859Z,1217.00
2023-04-17T06:16:29.878Z,1200.00
2023-04-17T06:17:29.773Z,1251.00
2023-04-17T06:18:29.700Z,1326.00
2023-04-17T06:19:29.581Z,1175.00
2023-04-17T06:20:29.564Z,927.00
2023-04-17T06:21:29.486Z,982.00
2023-04-17T06:22:29.414Z,1073.00
2023-04-17T06:23:29.363Z,934.00
2023-04-17T06:24:29.318Z,821.00
2023-04-17T06:25:29.203Z,936.00
2023-04-17T06:27:03.933Z,1050.00
2023-04-17T06:27:29.116Z,1052.00
2023-04-17T06:28:29.034Z,1168.00
2023-04-17T06:29:28.968Z,1222.00
2023-04-17T06:30:28.909Z,1228.00
2023-04-17T06:31:28.928Z,1050.00
2023-04-17T06:32:28.814Z,896.00
2023-04-17T06:33:28.711Z,837.00
2023-04-17T06:34:28.673Z,877.00
2023-04-17T06:35:28.612Z,782.00
2023-04-17T06:36:28.527Z,822.00
2023-04-17T06:37:28.431Z,856.00
2023-04-17T06:38:28.441Z,808.00
2023-04-17T06:39:28.367Z,795.00
2023-04-17T06:40:28.326Z,666.00
2023-04-17T06:41:28.179Z,625.00
2023-04-17T06:42:28.132Z,771.00
2023-04-17T06:43:28.105Z,1012.00
2023-04-17T06:45:02.756Z,897.00
2023-04-17T06:45:27.959Z,871.00
2023-04-17T06:46:27.905Z,858.00
2023-04-17T06:47:27.858Z,930.00
2023-04-17T06:48:27.762Z,911.00
2023-04-17T06:49:27.720Z,822.00
2023-04-17T06:50:27.676Z,881.00
2023-04-17T06:51:27.538Z,729.00
2023-04-17T06:52:27.524Z,831.00
2023-04-17T06:53:27.459Z,800.00
2023-04-17T06:54:27.379Z,733.00
2023-04-17T06:55:27.315Z,684.00
2023-04-17T06:56:27.266Z,645.00
2023-04-17T06:57:27.177Z,664.00
2023-04-17T06:58:27.129Z,826.00
2023-04-17T06:59:27.097Z,803.00
2023-04-17T07:00:27.065Z,732.00
2023-04-17T07:01:26.970Z,862.00
2023-04-17T07:02:27.041Z,1005.00
2023-04-17T07:03:26.856Z,1115.00
2023-04-17T07:04:26.764Z,1418.00
2023-04-17T07:05:26.644Z,1218.00
2023-04-17T07:06:26.613Z,1447.00
2023-04-17T07:07:26.514Z,1588.00
2023-04-17T07:08:26.499Z,1561.00
2023-04-17T07:09:26.454Z,1354.00
2023-04-17T07:10:26.373Z,1474.00
2023-04-17T07:11:26.327Z,1463.00
2023-04-17T07:12:26.253Z,1606.00
2023-04-17T07:13:26.159Z,1598.00
2023-04-17T07:14:26.087Z,1772.00
2023-04-17T07:15:26.072Z,1807.00
2023-04-17T07:16:25.987Z,1639.00
2023-04-17T07:17:26.024Z,1620.00
2023-04-17T07:18:25.840Z,1427.00
2023-04-17T07:19:25.775Z,603.00
2023-04-17T07:20:43.078Z,3254.00
2023-04-17T07:21:25.650Z,2248.00
2023-04-17T07:22:27.254Z,762.00
2023-04-17T07:23:25.556Z,2478.00
2023-04-17T07:24:25.432Z,2864.00
2023-04-17T07:25:25.387Z,2937.00
2023-04-17T07:26:25.311Z,3139.00
2023-04-17T07:27:25.303Z,3261.00
2023-04-17T07:28:25.235Z,3868.00
2023-04-17T07:29:25.152Z,3539.00
2023-04-17T07:30:25.192Z,3152.00
2023-04-17T07:31:25.057Z,4731.00
2023-04-17T07:32:24.962Z,4091.00
2023-04-17T07:33:24.896Z,4763.00
2023-04-17T07:34:24.841Z,3566.00
2023-04-17T07:35:24.719Z,6922.00
2023-04-17T07:36:24.688Z,3655.00
2023-04-17T07:37:24.650Z,6080.00
2023-04-17T07:40:03.459Z,4939.00
2023-04-17T07:41:04.392Z,4816.00
2023-04-17T07:42:04.320Z,5120.00
2023-04-17T07:43:04.242Z,4682.00
2023-04-17T07:44:04.239Z,5440.00
2023-04-17T07:45:04.128Z,5088.00
2023-04-17T07:46:04.038Z,4766.00
2023-04-17T07:47:04.029Z,3965.00
2023-04-17T07:48:04.014Z,4813.00
2023-04-17T07:49:03.853Z,4339.00
2023-04-17T07:50:03.791Z,4591.00
2023-04-17T07:51:03.752Z,3949.00
2023-04-17T07:52:03.688Z,4295.00
2023-04-17T07:53:03.625Z,4547.00
2023-04-17T07:54:03.577Z,4818.00
2023-04-17T07:55:03.497Z,5033.00
2023-04-17T07:56:03.426Z,5143.00
2023-04-17T07:57:03.384Z,4457.00
2023-04-17T07:58:03.327Z,6113.00
2023-04-17T07:59:03.276Z,4649.00
2023-04-17T08:00:03.154Z,9200.00
2023-04-17T08:01:03.123Z,1873.00
2023-04-17T08:02:03.163Z,12367.00
2023-04-17T08:03:03.235Z,8312.00
2023-04-17T08:04:03.234Z,8394.00
2023-04-17T08:05:02.971Z,7549.00
2023-04-17T08:06:02.778Z,8184.00
2023-04-17T08:07:02.757Z,7519.00
2023-04-17T08:08:02.703Z,6841.00
2023-04-17T08:09:02.922Z,5537.00
2023-04-17T08:10:02.519Z,6569.00
2023-04-17T08:11:02.459Z,5341.00
2023-04-17T08:12:02.468Z,5601.00
2023-04-17T08:13:02.363Z,3250.00
2023-04-17T08:14:02.357Z,5624.00
2023-04-17T08:15:02.251Z,7333.00
2023-04-17T08:16:02.227Z,6544.00
2023-04-17T08:17:02.166Z,6970.00
2023-04-17T08:18:02.070Z,7402.00
2023-04-17T08:19:01.998Z,6465.00
2023-04-17T08:20:01.925Z,4622.00
2023-04-17T08:21:01.905Z,6986.00
2023-04-17T08:22:01.795Z,6795.00
2023-04-17T08:23:01.734Z,5471.00
2023-04-17T08:24:01.633Z,4329.00
2023-04-17T08:25:01.640Z,3747.00
2023-04-17T08:26:01.568Z,3709.00
2023-04-17T08:27:01.526Z,3816.00
2023-04-17T08:28:01.460Z,1076.00
2023-04-17T08:29:01.386Z,5770.00
2023-04-17T08:30:01.353Z,7346.00
2023-04-17T08:31:01.324Z,3750.00
2023-04-17T08:32:13.943Z,7103.00
2023-04-17T08:34:14.891Z,6784.00
2023-04-17T08:35:11.206Z,6762.00
2023-04-17T08:36:11.234Z,6850.00
2023-04-17T08:37:11.081Z,6697.00
2023-04-17T08:38:10.993Z,6834.00
2023-04-17T08:39:11.202Z,6799.00
2023-04-17T08:40:10.862Z,6817.00
2023-04-17T08:41:10.826Z,6840.00
2023-04-17T08:42:14.600Z,6792.00
2023-04-17T08:43:10.706Z,6876.00
2023-04-17T08:44:10.616Z,6740.00
2023-04-17T08:45:10.596Z,6755.00
2023-04-17T08:46:10.539Z,7208.00
2023-04-17T08:47:10.475Z,6756.00
2023-04-17T08:48:10.503Z,7492.00
2023-04-17T08:49:10.709Z,5107.00
2023-04-17T08:50:10.292Z,6327.00
2023-04-17T08:51:27.551Z,4521.00
2023-04-17T08:52:10.132Z,7081.00
2023-04-17T08:53:10.049Z,7285.00
2023-04-17T08:54:10.046Z,7433.00
2023-04-17T08:55:09.977Z,7767.00
2023-04-17T08:56:09.890Z,7657.00
2023-04-17T08:57:09.859Z,7410.00
2023-04-17T08:58:09.765Z,8102.00
2023-04-17T08:59:09.775Z,8956.00
2023-04-17T09:00:09.639Z,4739.00
2023-04-17T09:01:09.613Z,6977.00
2023-04-17T09:02:09.649Z,7656.00
2023-04-17T09:03:09.608Z,7223.00
2023-04-17T09:04:09.776Z,6929.00
2023-04-17T09:05:09.304Z,6978.00
2023-04-17T09:06:09.261Z,7057.00
2023-04-17T09:07:09.207Z,6679.00
2023-04-17T09:08:09.122Z,6885.00
2023-04-17T09:09:09.458Z,6775.00
2023-04-17T09:10:09.050Z,6846.00
2023-04-17T09:11:08.954Z,6837.00
2023-04-17T09:12:08.919Z,6961.00
2023-04-17T09:13:08.828Z,7262.00
2023-04-17T09:14:08.800Z,5932.00
2023-04-17T09:15:08.749Z,7025.00
2023-04-17T09:16:08.748Z,7031.00
2023-04-17T09:17:08.606Z,7125.00
2023-04-17T09:18:08.603Z,6857.00
2023-04-17T09:19:08.455Z,6934.00
2023-04-17T09:20:08.407Z,7024.00
2023-04-17T09:21:08.320Z,6695.00
2023-04-17T09:22:08.276Z,6872.00
2023-04-17T09:23:08.205Z,6348.00
2023-04-17T09:24:08.150Z,7063.00
2023-04-17T09:25:08.113Z,6845.00
2023-04-17T09:26:08.001Z,7199.00
2023-04-17T09:27:07.973Z,7390.00
2023-04-17T09:28:07.904Z,7210.00
2023-04-17T09:29:07.904Z,6373.00
2023-04-17T09:30:07.808Z,3425.00
2023-04-17T09:31:07.758Z,6716.00
2023-04-17T09:32:07.679Z,29827.00
2023-04-17T09:33:07.644Z,75461.00
2023-04-17T09:34:07.658Z,73235.00
2023-04-17T09:35:07.456Z,69971.00
2023-04-17T09:36:07.455Z,33590.00
2023-04-17T09:37:07.346Z,30700.00
2023-04-17T09:38:07.372Z,32542.00
2023-04-17T09:39:07.258Z,30669.00
2023-04-17T09:40:07.142Z,31806.00
2023-04-17T09:41:07.112Z,75218.00
2023-04-17T09:42:07.062Z,75343.00
2023-04-17T09:43:09.490Z,74303.00
2023-04-17T09:44:06.940Z,70979.00
2023-04-17T09:45:24.240Z,31087.00
2023-04-17T09:46:06.834Z,16793.00
2023-04-17T09:47:06.738Z,10267.00
2023-04-17T09:48:06.732Z,9085.00
2023-04-17T09:49:06.606Z,8376.00
2023-04-17T09:50:06.576Z,7326.00
2023-04-17T09:51:06.493Z,6549.00
2023-04-17T09:52:06.422Z,3601.00
2023-04-17T09:53:06.365Z,1101.00
2023-04-17T09:54:06.300Z,6174.00
2023-04-17T09:55:06.244Z,8160.00
2023-04-17T09:56:06.157Z,6984.00
2023-04-17T09:57:06.120Z,6769.00
2023-04-17T09:58:06.047Z,7254.00
2023-04-17T09:59:06.019Z,7430.00
2023-04-17T10:00:05.920Z,5611.00
2023-04-17T10:01:05.939Z,7344.00
2023-04-17T10:02:05.899Z,7546.00
2023-04-17T10:03:05.920Z,7482.00
2023-04-17T10:04:05.926Z,8409.00
2023-04-17T10:05:05.681Z,8067.00
2023-04-17T10:06:05.527Z,8642.00
2023-04-17T10:07:05.471Z,3931.00
2023-04-17T10:08:05.402Z,78928.00
2023-04-17T10:09:05.346Z,78530.00
2023-04-17T10:10:05.323Z,75821.00
2023-04-17T10:11:05.272Z,56204.00
2023-04-17T10:12:05.190Z,4543.00
2023-04-17T10:13:05.132Z,79096.00
2023-04-17T10:14:05.089Z,56338.00
2023-04-17T10:15:05.267Z,2086.00
2023-04-17T10:16:04.974Z,15849.00
2023-04-17T10:17:04.900Z,4226.00
2023-04-17T10:18:04.881Z,3786.00
2023-04-17T10:19:04.721Z,1136.00
2023-04-17T10:20:04.700Z,6077.00
2023-04-17T10:21:22.041Z,7936.00
2023-04-17T10:22:04.543Z,7811.00
2023-04-17T10:23:04.473Z,7990.00
2023-04-17T10:24:04.438Z,7701.00
2023-04-17T10:25:04.461Z,7029.00
2023-04-17T10:26:04.289Z,4240.00
2023-04-17T10:27:04.924Z,4063.00
2023-04-17T10:28:04.212Z,1373.00
2023-04-17T10:29:04.141Z,6140.00
2023-04-17T10:30:04.052Z,7506.00
2023-04-17T10:31:04.005Z,5711.00
2023-04-17T10:32:04.010Z,4035.00
2023-04-17T10:33:03.950Z,1967.00
2023-04-17T10:34:03.860Z,4639.00
2023-04-17T10:35:03.742Z,6018.00
2023-04-17T10:36:03.684Z,6322.00
2023-04-17T10:37:03.663Z,4163.00
2023-04-17T10:38:03.577Z,5723.00
2023-04-17T10:39:03.503Z,5540.00
2023-04-17T10:40:03.482Z,6141.00
2023-04-17T10:41:03.396Z,5856.00
2023-04-17T10:42:03.348Z,5761.00
2023-04-17T10:43:03.264Z,2146.00
2023-04-17T10:44:03.201Z,2895.00
2023-04-17T10:45:03.156Z,4998.00
2023-04-17T10:46:03.260Z,858.00
2023-04-17T10:47:03.052Z,5356.00
2023-04-17T10:48:02.992Z,5252.00
2023-04-17T10:49:02.893Z,5211.00
2023-04-17T10:50:02.862Z,5373.00
2023-04-17T10:51:02.808Z,2237.00
2023-04-17T10:52:02.704Z,5982.00
2023-04-17T10:53:02.643Z,68617.00
2023-04-17T10:54:02.556Z,25199.00
2023-04-17T10:55:02.528Z,7520.00
2023-04-17T10:56:02.461Z,6029.00
2023-04-17T10:57:02.430Z,6252.00
2023-04-17T10:58:02.470Z,4732.00
2023-04-17T10:59:02.319Z,4638.00
2023-04-17T11:00:02.212Z,2163.00
2023-04-17T11:01:02.191Z,5310.00
2023-04-17T11:02:02.194Z,2891.00
2023-04-17T11:03:02.318Z,1850.00
2023-04-17T11:04:02.047Z,1595.00
2023-04-17T11:05:01.972Z,9200.00
2023-04-17T11:06:01.842Z,7966.00
2023-04-17T11:07:01.816Z,4920.00
2023-04-17T11:08:01.720Z,5633.00
2023-04-17T11:09:01.697Z,5425.00
2023-04-17T11:10:01.619Z,3307.00
2023-04-17T11:11:01.572Z,4155.00
2023-04-17T11:12:01.789Z,5678.00
2023-04-17T11:13:01.379Z,4614.00
2023-04-17T11:14:01.393Z,1981.00
2023-04-17T11:15:01.292Z,4216.00
2023-04-17T11:16:01.215Z,2892.00
2023-04-17T11:17:01.196Z,2973.00
2023-04-17T11:18:01.146Z,4617.00
2023-04-17T11:19:01.063Z,4300.00
2023-04-17T11:20:00.945Z,4710.00
2023-04-17T11:21:00.911Z,3694.00
2023-04-17T11:22:00.848Z,2956.00
2023-04-17T11:23:01.162Z,3647.00
2023-04-17T11:24:00.752Z,2472.00
2023-04-17T11:25:00.638Z,1308.00
2023-04-17T11:26:00.622Z,3782.00
2023-04-17T11:27:00.602Z,3848.00
2023-04-17T11:28:00.492Z,2255.00
2023-04-17T11:29:00.465Z,3487.00
2023-04-17T11:30:00.356Z,3963.00
2023-04-17T11:31:00.349Z,3811.00
2023-04-17T11:32:00.208Z,3626.00
2023-04-17T11:33:34.894Z,3332.00
2023-04-17T11:34:00.127Z,3066.00
2023-04-17T11:35:00.072Z,3180.00
2023-04-17T11:36:00.016Z,3184.00
2023-04-17T11:36:59.969Z,3178.00
2023-04-17T11:37:59.858Z,3483.00
2023-04-17T11:38:59.831Z,3407.00
2023-04-17T11:39:59.712Z,3439.00
2023-04-17T11:40:59.657Z,3675.00
2023-04-17T11:41:59.627Z,3829.00
2023-04-17T11:42:59.546Z,4069.00
2023-04-17T11:43:59.478Z,4199.00
2023-04-17T11:44:59.439Z,4310.00
2023-04-17T11:45:59.335Z,4469.00
2023-04-17T11:46:59.329Z,4384.00
2023-04-17T11:47:59.302Z,4242.00
2023-04-17T11:48:59.195Z,4026.00
2023-04-17T11:49:59.088Z,4326.00
2023-04-17T11:50:59.092Z,4949.00
2023-04-17T11:51:58.998Z,5214.00
2023-04-17T11:52:58.895Z,4914.00
2023-04-17T11:53:58.884Z,4897.00
2023-04-17T11:54:58.823Z,4064.00
2023-04-17T11:55:58.735Z,4465.00
2023-04-17T11:56:58.684Z,4458.00
2023-04-17T11:57:58.636Z,4075.00
2023-04-17T11:58:58.593Z,2869.00
2023-04-17T11:59:58.489Z,5908.00
2023-04-17T12:00:58.423Z,4056.00
2023-04-17T12:01:58.388Z,3743.00
2023-04-17T12:02:58.413Z,5285.00
2023-04-17T12:03:58.409Z,3790.00
2023-04-17T12:04:58.297Z,4166.00
2023-04-17T12:05:58.242Z,1391.00
2023-04-17T12:06:59.698Z,11106.00
2023-04-17T12:07:58.004Z,6283.00
2023-04-17T12:09:15.251Z,8362.00
2023-04-17T12:09:58.029Z,8602.00
2023-04-17T12:10:57.830Z,3180.00
2023-04-17T12:11:57.718Z,15527.00
2023-04-17T12:12:57.705Z,9935.00
2023-04-17T12:13:57.620Z,7645.00
2023-04-17T12:14:57.555Z,5841.00
2023-04-17T12:15:57.518Z,9609.00
2023-04-17T12:16:57.411Z,6420.00
2023-04-17T12:17:57.414Z,6676.00
2023-04-17T12:18:57.388Z,4388.00
2023-04-17T12:19:57.279Z,1680.00
2023-04-17T12:20:57.182Z,5976.00
2023-04-17T12:21:57.122Z,10448.00
2023-04-17T12:22:57.028Z,6910.00
2023-04-17T12:23:56.971Z,9080.00
2023-04-17T12:24:56.899Z,4565.00
2023-04-17T12:25:56.841Z,2393.00
2023-04-17T12:27:14.208Z,7428.00
2023-04-17T12:27:56.724Z,1818.00
2023-04-17T12:28:56.668Z,8314.00
2023-04-17T12:29:56.600Z,6404.00
2023-04-17T12:30:56.588Z,3236.00
2023-04-17T12:31:56.583Z,5234.00
2023-04-17T12:32:56.504Z,4520.00
2023-04-17T12:33:56.378Z,10149.00
2023-04-17T12:34:56.335Z,7341.00
2023-04-17T12:35:56.269Z,7112.00
2023-04-17T12:36:56.191Z,6785.00
2023-04-17T12:37:56.117Z,6006.00